createdAt,value
2022-08-22T00:00:43.918Z,19.80
2022-08-22T00:01:35.302Z,19.90
2022-08-22T00:02:41.888Z,22.70
2022-08-22T00:02:42.500Z,22.30
2022-08-22T00:02:53.605Z,22.00
2022-08-22T00:02:54.357Z,21.30
2022-08-22T00:03:00.234Z,22.10
2022-08-22T00:03:01.345Z,22.20
2022-08-22T00:03:09.034Z,20.30
2022-08-22T00:03:09.682Z,20.30
2022-08-22T00:03:12.379Z,20.80
2022-08-22T00:03:15.114Z,19.90
2022-08-22T00:04:12.015Z,19.80
2022-08-22T00:05:14.619Z,20.00
2022-08-22T00:06:08.240Z,19.90
2022-08-22T00:07:06.593Z,19.90
2022-08-22T00:08:08.501Z,19.90
2022-08-22T00:09:03.708Z,19.90
2022-08-22T00:09:54.820Z,19.80
2022-08-22T00:11:04.167Z,19.80
2022-08-22T00:12:14.882Z,19.80
2022-08-22T00:13:22.611Z,19.80
2022-08-22T00:14:33.085Z,19.90
2022-08-22T00:15:42.142Z,19.90
2022-08-22T00:16:37.654Z,19.70
2022-08-22T00:17:52.410Z,19.80
2022-08-22T00:18:57.957Z,19.60
2022-08-22T00:20:28.056Z,19.90
2022-08-22T00:21:35.606Z,19.90
2022-08-22T00:22:22.484Z,19.70
2022-08-22T00:24:06.924Z,19.60
2022-08-22T00:25:53.594Z,19.70
2022-08-22T00:26:42.174Z,19.70
2022-08-22T00:27:35.148Z,19.60
2022-08-22T00:28:35.000Z,19.50
2022-08-22T00:29:22.506Z,19.80
2022-08-22T00:30:13.924Z,19.60
2022-08-22T00:31:28.569Z,19.60
2022-08-22T00:32:20.025Z,19.50
2022-08-22T00:33:18.133Z,19.60
2022-08-22T00:34:23.918Z,19.60
2022-08-22T00:36:14.908Z,19.40
2022-08-22T00:37:19.111Z,19.40
2022-08-22T00:38:16.322Z,19.60
2022-08-22T00:39:11.290Z,19.50
2022-08-22T00:40:08.749Z,19.40
2022-08-22T00:41:00.223Z,19.50
2022-08-22T00:41:54.113Z,19.50
2022-08-22T00:42:48.020Z,19.50
2022-08-22T00:43:38.796Z,19.60
2022-08-22T00:44:29.365Z,19.60
2022-08-22T00:45:20.734Z,19.50
2022-08-22T00:46:27.926Z,19.40
2022-08-22T00:47:38.170Z,19.40
2022-08-22T00:48:53.167Z,19.50
2022-08-22T00:49:53.294Z,19.60
2022-08-22T00:52:02.503Z,19.30
2022-08-22T00:52:58.847Z,19.40
2022-08-22T00:53:49.124Z,19.40
2022-08-22T00:56:00.069Z,19.50
2022-08-22T00:57:12.461Z,19.30
2022-08-22T00:58:16.076Z,19.30
2022-08-22T00:59:23.228Z,19.30
2022-08-22T01:00:09.198Z,19.30
2022-08-22T01:00:57.018Z,19.20
2022-08-22T01:01:51.426Z,19.20
2022-08-22T01:02:54.497Z,19.30
2022-08-22T01:04:00.680Z,19.40
2022-08-22T01:05:15.640Z,19.20
2022-08-22T01:06:14.341Z,19.50
2022-08-22T01:07:38.211Z,19.40
2022-08-22T01:08:50.669Z,19.20
2022-08-22T01:10:10.315Z,19.20
2022-08-22T01:11:35.826Z,19.20
2022-08-22T01:12:36.418Z,19.30
2022-08-22T01:13:39.441Z,19.20
2022-08-22T01:14:34.853Z,19.20
2022-08-22T01:15:24.689Z,19.20
2022-08-22T01:16:54.776Z,19.10
2022-08-22T01:17:48.298Z,19.30
2022-08-22T01:18:56.104Z,19.30
2022-08-22T01:19:56.252Z,19.10
2022-08-22T01:21:20.763Z,19.00
2022-08-22T01:22:43.502Z,19.20
2022-08-22T01:23:37.115Z,19.10
2022-08-22T01:25:08.322Z,19.00
2022-08-22T01:27:03.600Z,18.90
2022-08-22T01:28:31.343Z,19.00
2022-08-22T01:29:30.447Z,19.10
2022-08-22T01:32:08.603Z,19.10
2022-08-22T01:33:24.991Z,19.00
2022-08-22T01:34:37.590Z,19.10
2022-08-22T01:35:31.314Z,18.90
2022-08-22T01:36:12.941Z,18.90
2022-08-22T01:37:21.682Z,19.00
2022-08-22T01:38:18.285Z,19.00
2022-08-22T01:39:21.682Z,19.00
2022-08-22T01:41:05.156Z,18.90
2022-08-22T01:41:49.961Z,18.80
2022-08-22T01:42:43.259Z,18.80
2022-08-22T01:43:59.239Z,18.80
2022-08-22T01:45:04.364Z,19.00
2022-08-22T01:46:01.483Z,18.80
2022-08-22T01:46:56.606Z,18.80
2022-08-22T01:47:55.347Z,18.80
2022-08-22T01:48:58.422Z,18.80
2022-08-22T01:49:47.904Z,18.70
2022-08-22T01:50:41.922Z,18.70
2022-08-22T01:52:40.438Z,18.70
2022-08-22T01:53:50.573Z,18.70
2022-08-22T01:54:54.741Z,18.70
2022-08-22T01:55:52.420Z,18.90
2022-08-22T01:56:45.703Z,18.70
2022-08-22T01:57:27.835Z,18.90
2022-08-22T01:58:21.061Z,18.70
2022-08-22T01:59:11.214Z,18.70
2022-08-22T01:59:58.110Z,18.60
2022-08-22T02:02:58.549Z,18.70
2022-08-22T02:04:07.361Z,18.70
2022-08-22T02:05:19.183Z,18.70
2022-08-22T02:06:04.988Z,18.60
2022-08-22T02:07:11.154Z,18.70
2022-08-22T02:08:11.381Z,18.70
2022-08-22T02:10:13.835Z,18.60
2022-08-22T02:11:12.457Z,18.80
2022-08-22T02:13:09.802Z,18.60
2022-08-22T02:14:06.518Z,18.70
2022-08-22T02:15:31.012Z,18.50
2022-08-22T02:16:27.057Z,18.50
2022-08-22T02:17:31.370Z,18.60
2022-08-22T02:18:23.033Z,18.50
2022-08-22T02:20:10.673Z,18.50
2022-08-22T02:21:14.413Z,18.60
2022-08-22T02:22:19.045Z,18.50
2022-08-22T02:25:32.455Z,18.50
2022-08-22T02:26:21.735Z,18.50
2022-08-22T02:27:32.785Z,18.60
2022-08-22T02:29:17.508Z,18.60
2022-08-22T02:30:10.406Z,18.80
2022-08-22T02:31:00.057Z,18.50
2022-08-22T02:31:58.095Z,18.60
2022-08-22T02:32:53.518Z,18.60
2022-08-22T02:33:45.706Z,18.50
2022-08-22T02:35:51.354Z,18.70
2022-08-22T02:36:46.689Z,18.70
2022-08-22T02:38:07.910Z,18.40
2022-08-22T02:39:49.475Z,18.60
2022-08-22T02:40:43.601Z,18.50
2022-08-22T02:41:36.207Z,18.60
2022-08-22T02:42:33.693Z,18.40
2022-08-22T02:43:15.329Z,18.40
2022-08-22T02:45:42.331Z,18.40
2022-08-22T02:46:49.543Z,18.40
2022-08-22T02:49:34.880Z,18.40
2022-08-22T02:50:56.937Z,18.30
2022-08-22T02:53:52.577Z,18.20
2022-08-22T02:54:37.360Z,18.50
2022-08-22T02:55:31.314Z,18.30
2022-08-22T02:56:14.948Z,18.30
2022-08-22T02:57:14.039Z,18.20
2022-08-22T02:58:18.226Z,18.30
2022-08-22T02:59:22.611Z,18.20
2022-08-22T03:00:31.289Z,18.40
2022-08-22T03:01:43.915Z,18.20
2022-08-22T03:02:33.427Z,18.40
2022-08-22T03:04:24.166Z,18.30
2022-08-22T03:05:27.830Z,18.20
2022-08-22T03:06:34.534Z,18.20
2022-08-22T03:10:19.455Z,18.40
2022-08-22T03:11:23.245Z,18.20
2022-08-22T03:12:20.998Z,18.10
2022-08-22T03:13:48.042Z,18.20
2022-08-22T03:15:40.875Z,18.10
2022-08-22T03:16:35.939Z,18.30
2022-08-22T03:18:19.499Z,18.20
2022-08-22T03:19:31.440Z,18.20
2022-08-22T03:20:41.665Z,18.10
2022-08-22T03:23:31.272Z,18.10
2022-08-22T03:24:22.795Z,18.10
2022-08-22T03:26:15.313Z,18.30
2022-08-22T03:27:12.818Z,18.20
2022-08-22T03:28:08.061Z,18.20
2022-08-22T03:29:48.742Z,18.10
2022-08-22T03:30:43.353Z,18.20
2022-08-22T03:31:26.726Z,18.10
2022-08-22T03:32:13.439Z,18.10
2022-08-22T03:32:59.254Z,18.20
2022-08-22T03:33:41.930Z,18.10
2022-08-22T03:34:26.377Z,18.00
2022-08-22T03:36:16.134Z,18.20
2022-08-22T03:37:23.110Z,18.10
2022-08-22T03:40:32.106Z,18.10
2022-08-22T03:41:52.518Z,18.10
2022-08-22T03:42:38.909Z,18.00
2022-08-22T03:43:23.578Z,18.10
2022-08-22T03:44:19.494Z,18.10
2022-08-22T03:45:26.574Z,18.10
2022-08-22T03:46:39.115Z,18.10
2022-08-22T03:47:34.665Z,18.00
2022-08-22T03:48:55.021Z,18.10
2022-08-22T03:51:47.765Z,18.00
2022-08-22T03:53:04.413Z,18.10
2022-08-22T03:53:46.052Z,18.00
2022-08-22T03:54:48.942Z,17.90
2022-08-22T03:55:45.663Z,17.90
2022-08-22T03:56:54.116Z,18.20
2022-08-22T03:58:27.892Z,17.90
2022-08-22T03:59:31.733Z,18.00
2022-08-22T04:00:22.255Z,18.00
2022-08-22T04:01:14.609Z,17.90
2022-08-22T04:02:27.522Z,18.00
2022-08-22T04:04:01.239Z,18.10
2022-08-22T04:05:04.884Z,18.20
2022-08-22T04:06:12.852Z,18.20
2022-08-22T04:07:28.102Z,18.00
2022-08-22T04:09:17.192Z,18.10
2022-08-22T04:10:11.285Z,18.20
2022-08-22T04:11:05.260Z,18.00
2022-08-22T04:12:13.456Z,18.00
2022-08-22T04:13:32.607Z,18.00
2022-08-22T04:14:17.062Z,18.20
2022-08-22T04:15:20.324Z,18.00
2022-08-22T04:16:20.480Z,18.00
2022-08-22T04:18:29.328Z,17.90
2022-08-22T04:20:16.724Z,18.10
2022-08-22T04:21:20.338Z,17.90
2022-08-22T04:25:08.238Z,18.10
2022-08-22T04:25:58.594Z,17.90
2022-08-22T04:29:07.885Z,17.90
2022-08-22T04:30:25.106Z,17.90
2022-08-22T04:32:36.166Z,18.10
2022-08-22T04:33:26.863Z,17.90
2022-08-22T04:34:37.218Z,17.90
2022-08-22T04:35:34.992Z,18.00
2022-08-22T04:36:21.320Z,18.00
2022-08-22T04:38:23.879Z,17.80
2022-08-22T04:41:50.909Z,17.80
2022-08-22T04:43:28.060Z,17.90
2022-08-22T04:45:40.842Z,17.90
2022-08-22T04:46:38.845Z,17.80
2022-08-22T04:47:41.318Z,17.90
2022-08-22T04:48:40.852Z,17.90
2022-08-22T04:51:47.973Z,18.00
2022-08-22T04:52:48.601Z,17.90
2022-08-22T04:53:48.119Z,17.90
2022-08-22T04:54:48.427Z,17.90
2022-08-22T04:56:07.623Z,17.90
2022-08-22T04:58:55.902Z,17.80
2022-08-22T04:59:38.749Z,17.90
2022-08-22T05:00:20.656Z,17.80
2022-08-22T05:01:07.525Z,17.90
2022-08-22T05:04:25.256Z,17.90
2022-08-22T05:05:16.855Z,18.10
2022-08-22T05:06:00.909Z,17.90
2022-08-22T05:06:49.252Z,18.00
2022-08-22T05:09:10.869Z,18.10
2022-08-22T05:10:11.661Z,18.20
2022-08-22T05:10:54.892Z,18.00
2022-08-22T05:15:35.250Z,18.10
2022-08-22T05:16:40.649Z,18.10
2022-08-22T05:17:27.970Z,18.10
2022-08-22T05:19:17.461Z,18.10
2022-08-22T05:20:08.875Z,18.20
2022-08-22T05:20:53.978Z,18.00
2022-08-22T05:21:39.800Z,18.10
2022-08-22T05:22:27.727Z,18.20
2022-08-22T05:23:24.603Z,18.10
2022-08-22T05:24:12.029Z,18.00
2022-08-22T05:25:42.295Z,18.20
2022-08-22T05:26:26.629Z,18.20
2022-08-22T05:27:23.630Z,18.30
2022-08-22T05:29:41.279Z,18.10
2022-08-22T05:30:28.288Z,18.30
2022-08-22T05:31:14.957Z,18.00
2022-08-22T05:33:01.533Z,18.30
2022-08-22T05:34:37.342Z,18.10
2022-08-22T05:35:23.221Z,18.20
2022-08-22T05:36:10.949Z,18.10
2022-08-22T05:37:04.487Z,18.10
2022-08-22T05:37:55.063Z,18.10
2022-08-22T05:39:28.038Z,18.20
2022-08-22T05:40:19.186Z,18.20
2022-08-22T05:41:10.490Z,18.30
2022-08-22T05:45:28.878Z,18.10
2022-08-22T05:46:38.954Z,18.10
2022-08-22T05:47:28.937Z,18.30
2022-08-22T05:48:18.406Z,18.20
2022-08-22T05:49:03.109Z,18.10
2022-08-22T05:50:04.588Z,18.30
2022-08-22T05:50:56.458Z,18.30
2022-08-22T05:51:49.144Z,18.20
2022-08-22T05:54:34.383Z,18.40
2022-08-22T05:57:08.728Z,18.30
2022-08-22T05:58:05.728Z,18.30
2022-08-22T05:59:00.110Z,18.30
2022-08-22T05:59:44.006Z,18.30
2022-08-22T06:02:27.129Z,18.50
2022-08-22T06:03:36.342Z,18.40
2022-08-22T06:05:25.335Z,18.40
2022-08-22T06:07:31.172Z,18.30
2022-08-22T06:08:30.084Z,18.40
2022-08-22T06:10:35.145Z,18.60
2022-08-22T06:11:33.839Z,18.50
2022-08-22T06:13:25.457Z,18.60
2022-08-22T06:14:29.581Z,18.60
2022-08-22T06:15:32.593Z,18.60
2022-08-22T06:16:17.021Z,18.70
2022-08-22T06:17:10.229Z,18.60
2022-08-22T06:18:43.295Z,18.60
2022-08-22T06:20:10.436Z,18.60
2022-08-22T06:21:04.265Z,18.50
2022-08-22T06:22:35.884Z,18.70
2022-08-22T06:23:42.957Z,18.70
2022-08-22T06:24:27.359Z,18.70
2022-08-22T06:27:31.619Z,18.90
2022-08-22T06:29:01.541Z,18.80
2022-08-22T06:29:51.261Z,18.80
2022-08-22T06:30:35.543Z,18.90
2022-08-22T06:31:23.475Z,18.80
2022-08-22T06:32:44.374Z,18.90
2022-08-22T06:34:11.855Z,19.20
2022-08-22T06:36:47.640Z,19.00
2022-08-22T06:37:38.506Z,19.00
2022-08-22T06:38:21.729Z,19.20
2022-08-22T06:39:17.340Z,19.00
2022-08-22T06:40:02.245Z,19.20
2022-08-22T06:40:44.420Z,19.30
2022-08-22T06:41:30.700Z,19.10
2022-08-22T06:42:17.067Z,19.30
2022-08-22T06:42:59.476Z,19.20
2022-08-22T06:43:43.974Z,19.50
2022-08-22T06:44:37.372Z,19.40
2022-08-22T06:45:32.103Z,19.20
2022-08-22T06:46:16.849Z,19.40
2022-08-22T06:47:00.985Z,19.20
2022-08-22T06:47:50.270Z,19.30
2022-08-22T06:48:34.516Z,19.10
2022-08-22T06:49:16.717Z,19.40
2022-08-22T06:50:06.520Z,20.10
2022-08-22T06:50:58.611Z,19.20
2022-08-22T06:51:41.220Z,19.40
2022-08-22T06:52:27.143Z,19.20
2022-08-22T06:53:34.995Z,19.40
2022-08-22T06:54:22.013Z,19.30
2022-08-22T06:55:08.071Z,19.20
2022-08-22T06:55:54.537Z,19.30
2022-08-22T06:56:41.532Z,19.20
2022-08-22T06:57:55.481Z,19.30
2022-08-22T06:58:45.872Z,19.40
2022-08-22T06:59:30.931Z,19.50
2022-08-22T07:00:16.071Z,19.70
2022-08-22T07:01:11.869Z,19.50
2022-08-22T07:02:20.744Z,19.50
2022-08-22T07:03:26.895Z,19.60
2022-08-22T07:04:10.089Z,19.50
2022-08-22T07:04:52.022Z,19.40
2022-08-22T07:05:40.513Z,19.20
2022-08-22T07:06:41.487Z,19.50
2022-08-22T07:07:26.513Z,19.50
2022-08-22T07:08:55.773Z,19.60
2022-08-22T07:09:41.346Z,19.40
2022-08-22T07:10:24.452Z,19.70
2022-08-22T07:11:21.794Z,19.60
2022-08-22T07:12:20.071Z,19.80
2022-08-22T07:13:04.424Z,19.70
2022-08-22T07:14:02.355Z,19.70
2022-08-22T07:14:49.452Z,19.90
2022-08-22T07:15:42.158Z,19.70
2022-08-22T07:16:48.087Z,19.70
2022-08-22T07:17:32.759Z,19.70
2022-08-22T07:18:20.942Z,19.70
2022-08-22T07:19:02.899Z,19.90
2022-08-22T07:19:57.165Z,19.80
2022-08-22T07:20:45.652Z,19.80
2022-08-22T07:21:32.566Z,19.90
2022-08-22T07:22:31.906Z,19.80
2022-08-22T07:23:25.953Z,19.80
2022-08-22T07:24:09.426Z,19.80
2022-08-22T07:25:08.207Z,19.90
2022-08-22T07:25:58.529Z,19.80
2022-08-22T07:26:43.828Z,19.90
2022-08-22T07:27:52.580Z,20.10
2022-08-22T07:28:51.416Z,19.90
2022-08-22T07:29:53.001Z,20.10
2022-08-22T07:30:52.013Z,19.90
2022-08-22T07:31:46.685Z,20.00
2022-08-22T07:32:43.213Z,20.20
2022-08-22T07:33:46.404Z,20.10
2022-08-22T07:34:34.222Z,20.10
2022-08-22T07:35:25.950Z,20.00
2022-08-22T07:36:42.725Z,20.10
2022-08-22T07:38:43.867Z,20.30
2022-08-22T07:39:53.815Z,20.10
2022-08-22T07:40:40.761Z,20.20
2022-08-22T07:41:38.622Z,20.20
2022-08-22T07:42:30.344Z,20.20
2022-08-22T07:43:56.439Z,20.40
2022-08-22T07:44:59.431Z,20.40
2022-08-22T07:45:52.162Z,20.40
2022-08-22T07:46:55.828Z,20.50
2022-08-22T07:47:52.628Z,20.80
2022-08-22T07:49:07.713Z,20.70
2022-08-22T07:50:00.136Z,20.70
2022-08-22T07:50:58.737Z,20.60
2022-08-22T07:51:45.438Z,20.60
2022-08-22T07:52:35.694Z,20.90
2022-08-22T07:53:34.672Z,20.60
2022-08-22T07:54:35.031Z,20.90
2022-08-22T07:55:24.118Z,20.90
2022-08-22T07:56:11.936Z,20.90
2022-08-22T07:56:57.706Z,21.00
2022-08-22T07:57:47.820Z,21.00
2022-08-22T07:58:33.904Z,21.00
2022-08-22T07:59:19.989Z,20.90
2022-08-22T08:00:11.004Z,21.00
2022-08-22T08:00:54.378Z,21.00
2022-08-22T08:01:37.514Z,21.10
2022-08-22T08:03:07.327Z,21.10
2022-08-22T08:03:59.931Z,21.30
2022-08-22T08:04:42.533Z,21.20
2022-08-22T08:05:27.673Z,21.40
2022-08-22T08:06:55.825Z,21.20
2022-08-22T08:07:40.688Z,21.30
2022-08-22T08:08:41.942Z,21.40
2022-08-22T08:09:27.639Z,21.30
2022-08-22T08:10:14.450Z,21.40
2022-08-22T08:10:59.205Z,21.60
2022-08-22T08:11:43.549Z,21.40
2022-08-22T08:12:36.693Z,21.40
2022-08-22T08:13:31.076Z,21.50
2022-08-22T08:14:16.705Z,21.60
2022-08-22T08:15:01.127Z,21.70
2022-08-22T08:15:45.792Z,21.60
2022-08-22T08:16:34.449Z,21.60
2022-08-22T08:17:22.947Z,21.70
2022-08-22T08:18:10.833Z,21.70
2022-08-22T08:18:56.675Z,21.60
2022-08-22T08:19:41.279Z,21.80
2022-08-22T08:20:26.207Z,21.80
2022-08-22T08:21:14.771Z,21.80
2022-08-22T08:21:57.944Z,21.80
2022-08-22T08:22:42.900Z,21.90
2022-08-22T08:23:26.528Z,21.80
2022-08-22T08:24:15.586Z,21.90
2022-08-22T08:25:00.224Z,21.90
2022-08-22T08:25:58.222Z,22.00
2022-08-22T08:27:04.283Z,21.90
2022-08-22T08:28:04.979Z,22.10
2022-08-22T08:28:54.299Z,21.90
2022-08-22T08:29:37.112Z,22.20
2022-08-22T08:30:35.535Z,21.90
2022-08-22T08:31:29.162Z,22.20
2022-08-22T08:32:13.132Z,22.10
2022-08-22T08:33:24.397Z,22.10
2022-08-22T08:34:23.588Z,22.30
2022-08-22T08:35:20.347Z,22.20
2022-08-22T08:36:17.884Z,22.30
2022-08-22T08:37:16.910Z,22.30
2022-08-22T08:38:11.469Z,22.40
2022-08-22T08:39:14.181Z,22.50
2022-08-22T08:39:59.330Z,22.30
2022-08-22T08:41:08.626Z,22.40
2022-08-22T08:42:27.989Z,22.50
2022-08-22T08:43:28.239Z,22.50
2022-08-22T08:44:28.831Z,22.60
2022-08-22T08:45:48.289Z,22.70
2022-08-22T08:46:39.051Z,22.80
2022-08-22T08:47:35.955Z,22.80
2022-08-22T08:48:41.612Z,22.70
2022-08-22T08:49:47.097Z,22.80
2022-08-22T08:50:55.058Z,23.00
2022-08-22T08:51:53.694Z,22.90
2022-08-22T08:52:42.129Z,22.90
2022-08-22T08:53:48.373Z,22.90
2022-08-22T08:54:44.173Z,22.90
2022-08-22T08:55:54.264Z,23.00
2022-08-22T08:56:47.191Z,23.00
2022-08-22T08:57:50.413Z,23.00
2022-08-22T09:00:14.494Z,23.20
2022-08-22T09:01:12.542Z,23.50
2022-08-22T09:02:33.888Z,23.60
2022-08-22T09:03:36.170Z,23.60
2022-08-22T09:05:24.602Z,23.70
2022-08-22T09:06:24.256Z,23.70
2022-08-22T09:07:47.964Z,23.70
2022-08-22T09:09:11.691Z,23.90
2022-08-22T09:10:13.903Z,23.80
2022-08-22T09:11:31.051Z,23.90
2022-08-22T09:12:25.068Z,23.90
2022-08-22T09:13:34.609Z,24.10
2022-08-22T09:14:37.595Z,23.90
2022-08-22T09:15:38.924Z,24.10
2022-08-22T09:16:51.921Z,24.00
2022-08-22T09:17:50.931Z,23.90
2022-08-22T09:18:51.832Z,23.90
2022-08-22T09:19:46.295Z,24.00
2022-08-22T09:20:49.161Z,23.70
2022-08-22T09:21:58.518Z,23.90
2022-08-22T09:22:52.452Z,24.00
2022-08-22T09:23:48.794Z,23.90
2022-08-22T09:25:06.122Z,24.00
2022-08-22T09:25:55.221Z,24.10
2022-08-22T09:26:48.247Z,23.90
2022-08-22T09:27:45.972Z,23.90
2022-08-22T09:28:34.558Z,23.80
2022-08-22T09:29:33.860Z,23.90
2022-08-22T09:30:27.574Z,24.00
2022-08-22T09:31:47.460Z,23.90
2022-08-22T09:32:54.683Z,23.80
2022-08-22T09:33:55.006Z,24.00
2022-08-22T09:35:18.678Z,24.00
2022-08-22T09:36:07.216Z,24.00
2022-08-22T09:37:20.908Z,23.90
2022-08-22T09:38:34.726Z,23.90
2022-08-22T09:39:22.447Z,24.00
2022-08-22T09:40:30.240Z,24.10
2022-08-22T09:41:18.696Z,24.00
2022-08-22T09:42:25.419Z,24.10
2022-08-22T09:43:22.852Z,24.10
2022-08-22T09:44:39.677Z,24.20
2022-08-22T09:45:45.356Z,24.10
2022-08-22T09:46:49.968Z,24.10
2022-08-22T09:47:51.890Z,24.00
2022-08-22T09:49:06.581Z,23.90
2022-08-22T09:50:17.888Z,24.10
2022-08-22T09:51:32.655Z,24.10
2022-08-22T09:52:48.538Z,23.90
2022-08-22T09:53:59.484Z,23.80
2022-08-22T09:55:02.980Z,23.90
2022-08-22T09:56:01.626Z,23.70
2022-08-22T09:57:10.572Z,23.90
2022-08-22T09:58:06.762Z,23.70
2022-08-22T09:59:21.736Z,23.80
2022-08-22T10:00:06.659Z,23.90
2022-08-22T10:01:10.001Z,24.10
2022-08-22T10:01:59.447Z,24.20
2022-08-22T10:02:53.870Z,24.20
2022-08-22T10:04:00.418Z,24.40
2022-08-22T10:05:06.692Z,24.40
2022-08-22T10:05:56.960Z,24.30
2022-08-22T10:06:49.714Z,24.30
2022-08-22T10:08:02.430Z,24.50
2022-08-22T10:08:50.615Z,24.50
2022-08-22T10:10:03.642Z,24.40
2022-08-22T10:11:07.449Z,24.40
2022-08-22T10:12:02.826Z,24.40
2022-08-22T10:12:54.860Z,24.50
2022-08-22T10:13:46.823Z,24.50
2022-08-22T10:14:53.446Z,24.50
2022-08-22T10:15:47.421Z,24.60
2022-08-22T10:17:07.900Z,24.70
2022-08-22T10:18:19.392Z,24.80
2022-08-22T10:19:18.060Z,24.80
2022-08-22T10:20:24.876Z,24.80
2022-08-22T10:21:35.299Z,25.00
2022-08-22T10:22:41.531Z,25.00
2022-08-22T10:24:58.756Z,25.00
2022-08-22T10:25:48.485Z,25.20
2022-08-22T10:26:38.616Z,25.10
2022-08-22T10:27:39.655Z,25.10
2022-08-22T10:28:39.474Z,25.20
2022-08-22T10:29:51.250Z,25.20
2022-08-22T10:30:42.795Z,25.20
2022-08-22T10:31:59.091Z,25.30
2022-08-22T10:32:44.971Z,25.20
2022-08-22T10:33:29.229Z,25.50
2022-08-22T10:34:20.289Z,25.50
2022-08-22T10:35:28.539Z,25.50
2022-08-22T10:36:40.995Z,25.50
2022-08-22T10:37:37.221Z,25.60
2022-08-22T10:38:46.609Z,25.50
2022-08-22T10:39:53.855Z,25.40
2022-08-22T10:40:41.615Z,25.20
2022-08-22T10:41:39.482Z,25.10
2022-08-22T10:42:35.169Z,25.20
2022-08-22T10:43:56.515Z,25.20
2022-08-22T10:45:07.908Z,25.20
2022-08-22T10:46:03.586Z,25.20
2022-08-22T10:46:57.163Z,25.10
2022-08-22T10:47:50.837Z,25.20
2022-08-22T10:48:50.345Z,25.00
2022-08-22T10:49:51.299Z,25.20
2022-08-22T10:50:38.328Z,25.30
2022-08-22T10:51:28.949Z,25.30
2022-08-22T10:52:34.874Z,25.40
2022-08-22T10:53:35.840Z,25.40
2022-08-22T10:54:20.713Z,25.30
2022-08-22T10:55:17.389Z,25.40
2022-08-22T10:56:43.853Z,25.50
2022-08-22T10:57:44.068Z,25.30
2022-08-22T10:58:36.803Z,25.40
2022-08-22T10:59:38.507Z,25.40
2022-08-22T11:00:46.329Z,25.50
2022-08-22T11:01:41.808Z,25.60
2022-08-22T11:02:38.446Z,25.60
2022-08-22T11:03:24.759Z,25.60
2022-08-22T11:04:30.912Z,25.70
2022-08-22T11:05:24.593Z,25.90
2022-08-22T11:06:44.801Z,25.90
2022-08-22T11:07:42.240Z,26.00
2022-08-22T11:08:42.540Z,26.00
2022-08-22T11:09:28.265Z,25.90
2022-08-22T11:10:24.051Z,26.00
2022-08-22T11:11:14.375Z,26.00
2022-08-22T11:12:07.831Z,25.80
2022-08-22T11:13:12.810Z,25.90
2022-08-22T11:14:31.370Z,25.70
2022-08-22T11:15:34.771Z,25.90
2022-08-22T11:16:42.727Z,25.90
2022-08-22T11:17:32.437Z,25.80
2022-08-22T11:19:02.959Z,25.70
2022-08-22T11:20:12.499Z,26.00
2022-08-22T11:21:07.176Z,26.00
2022-08-22T11:22:31.246Z,26.10
2022-08-22T11:23:38.955Z,26.30
2022-08-22T11:24:55.251Z,26.30
2022-08-22T11:25:53.958Z,26.20
2022-08-22T11:26:47.510Z,26.30
2022-08-22T11:27:56.476Z,26.40
2022-08-22T11:29:20.284Z,26.50
2022-08-22T11:30:06.578Z,26.40
2022-08-22T11:31:03.555Z,26.30
2022-08-22T11:32:08.884Z,26.50
2022-08-22T11:33:06.249Z,26.70
2022-08-22T11:34:13.874Z,26.40
2022-08-22T11:35:19.786Z,26.60
2022-08-22T11:36:04.665Z,26.50
2022-08-22T11:36:55.752Z,26.70
2022-08-22T11:37:49.124Z,26.70
2022-08-22T11:38:49.076Z,26.80
2022-08-22T11:39:41.136Z,26.80
2022-08-22T11:40:44.985Z,26.70
2022-08-22T11:41:53.019Z,26.90
2022-08-22T11:42:47.922Z,26.60
2022-08-22T11:43:41.595Z,26.80
2022-08-22T11:44:34.305Z,26.90
2022-08-22T11:45:25.206Z,27.00
2022-08-22T11:46:22.216Z,26.90
2022-08-22T11:47:11.553Z,27.10
2022-08-22T11:48:09.782Z,27.00
2022-08-22T11:48:57.909Z,27.00
2022-08-22T11:50:13.821Z,27.10
2022-08-22T11:51:25.011Z,26.90
2022-08-22T11:52:12.434Z,26.90
2022-08-22T11:53:07.781Z,26.80
2022-08-22T11:54:07.578Z,27.10
2022-08-22T11:55:01.034Z,26.90
2022-08-22T11:55:47.211Z,27.00
2022-08-22T11:56:50.033Z,27.10
2022-08-22T11:57:44.321Z,27.00
2022-08-22T11:58:30.011Z,26.90
2022-08-22T11:59:32.961Z,27.10
2022-08-22T12:00:23.367Z,27.10
2022-08-22T12:01:17.523Z,27.10
2022-08-22T12:02:04.226Z,27.00
2022-08-22T12:03:23.300Z,27.30
2022-08-22T12:04:20.192Z,27.00
2022-08-22T12:05:10.809Z,27.10
2022-08-22T12:06:28.974Z,26.80
2022-08-22T12:07:17.805Z,26.70
2022-08-22T12:08:40.736Z,27.00
2022-08-22T12:09:44.307Z,26.70
2022-08-22T12:10:35.414Z,26.80
2022-08-22T12:11:40.404Z,27.10
2022-08-22T12:12:32.591Z,27.00
2022-08-22T12:13:39.027Z,27.00
2022-08-22T12:14:42.871Z,26.80
2022-08-22T12:15:28.993Z,26.80
2022-08-22T12:16:29.840Z,27.10
2022-08-22T12:17:55.338Z,27.00
2022-08-22T12:18:52.971Z,27.00
2022-08-22T12:20:15.156Z,26.90
2022-08-22T12:21:10.527Z,27.00
2022-08-22T12:22:32.589Z,26.80
2022-08-22T12:23:43.148Z,26.90
2022-08-22T12:24:30.827Z,26.80
2022-08-22T12:25:30.892Z,26.80
2022-08-22T12:26:41.515Z,27.00
2022-08-22T12:27:48.140Z,26.90
2022-08-22T12:28:54.657Z,27.00
2022-08-22T12:29:55.306Z,26.80
2022-08-22T12:31:04.467Z,26.90
2022-08-22T12:32:02.657Z,26.90
2022-08-22T12:32:57.234Z,27.00
2022-08-22T12:33:48.429Z,27.10
2022-08-22T12:35:13.742Z,27.00
2022-08-22T12:36:17.793Z,27.20
2022-08-22T12:37:18.896Z,27.20
2022-08-22T12:38:40.287Z,27.20
2022-08-22T12:39:55.163Z,27.10
2022-08-22T12:41:08.170Z,27.10
2022-08-22T12:42:05.446Z,27.10
2022-08-22T12:42:53.695Z,27.10
2022-08-22T12:43:57.215Z,26.90
2022-08-22T12:44:57.018Z,27.00
2022-08-22T12:46:18.219Z,27.00
2022-08-22T12:47:37.917Z,26.80
2022-08-22T12:48:49.005Z,27.00
2022-08-22T12:49:56.542Z,26.80
2022-08-22T12:50:57.936Z,26.80
2022-08-22T12:52:10.616Z,26.90
2022-08-22T12:53:07.050Z,26.80
2022-08-22T12:53:48.743Z,26.90
2022-08-22T12:54:39.345Z,26.70
2022-08-22T12:55:44.278Z,26.80
2022-08-22T12:56:47.487Z,26.80
2022-08-22T12:57:54.304Z,26.90
2022-08-22T12:58:51.046Z,26.90
2022-08-22T12:59:39.441Z,26.70
2022-08-22T13:00:35.060Z,26.70
2022-08-22T13:01:17.194Z,26.70
2022-08-22T13:02:02.982Z,26.90
2022-08-22T13:02:45.368Z,26.90
2022-08-22T13:03:53.373Z,26.60
2022-08-22T13:04:45.293Z,26.90
2022-08-22T13:05:29.575Z,26.90
2022-08-22T13:06:36.094Z,26.90
2022-08-22T13:07:27.045Z,27.00
2022-08-22T13:08:19.824Z,27.00
2022-08-22T13:09:10.338Z,26.80
2022-08-22T13:10:01.174Z,26.80
2022-08-22T13:10:49.764Z,26.90
2022-08-22T13:11:38.774Z,26.90
2022-08-22T13:12:34.313Z,27.00
2022-08-22T13:13:31.684Z,27.10
2022-08-22T13:14:27.473Z,27.10
2022-08-22T13:15:26.413Z,27.00
2022-08-22T13:16:15.574Z,27.10
2022-08-22T13:17:01.611Z,26.90
2022-08-22T13:18:28.835Z,27.20
2022-08-22T13:19:17.237Z,27.10
2022-08-22T13:20:11.307Z,26.90
2022-08-22T13:20:56.888Z,27.10
2022-08-22T13:22:01.228Z,27.00
2022-08-22T13:22:45.681Z,27.10
2022-08-22T13:23:51.094Z,27.00
2022-08-22T13:25:05.664Z,27.10
2022-08-22T13:26:02.400Z,27.20
2022-08-22T13:26:59.531Z,27.10
2022-08-22T13:27:50.792Z,27.20
2022-08-22T13:28:45.655Z,27.00
2022-08-22T13:29:50.160Z,27.20
2022-08-22T13:30:37.910Z,27.40
2022-08-22T13:31:32.284Z,27.20
2022-08-22T13:32:51.058Z,27.30
2022-08-22T13:33:39.034Z,27.20
2022-08-22T13:34:51.088Z,27.20
2022-08-22T13:35:45.393Z,27.50
2022-08-22T13:36:51.705Z,27.30
2022-08-22T13:37:46.655Z,28.40
2022-08-22T13:38:46.571Z,27.40
2022-08-22T13:39:40.979Z,27.40
2022-08-22T13:40:29.358Z,27.20
2022-08-22T13:41:12.621Z,27.40
2022-08-22T13:41:59.359Z,27.30
2022-08-22T13:42:47.811Z,27.50
2022-08-22T13:43:51.283Z,27.40
2022-08-22T13:44:38.327Z,27.30
2022-08-22T13:45:27.808Z,27.30
2022-08-22T13:46:10.858Z,27.20
2022-08-22T13:47:13.545Z,27.20
2022-08-22T13:48:03.944Z,27.20
2022-08-22T13:48:50.466Z,27.20
2022-08-22T13:49:39.395Z,27.30
2022-08-22T13:50:25.116Z,27.20
2022-08-22T13:51:16.570Z,27.20
2022-08-22T13:52:28.840Z,27.40
2022-08-22T13:53:42.398Z,27.20
2022-08-22T13:54:55.885Z,27.50
2022-08-22T13:55:50.781Z,27.50
2022-08-22T13:56:53.024Z,27.60
2022-08-22T13:57:51.685Z,27.50
2022-08-22T13:58:43.725Z,27.50